createdAt,value
2019-04-26T07:40:03.172Z,29.8
2019-04-26T08:00:06.724Z,27.4
2019-04-26T08:05:00.920Z,30.2
2019-04-26T08:10:00.552Z,30.1
2019-04-26T08:15:01.112Z,30.1
2019-04-26T08:25:00.687Z,30.7
2019-04-26T08:30:15.258Z,30.1
2019-04-26T08:35:15.849Z,30.5
2019-04-26T08:40:00.624Z,30.8
2019-04-26T08:45:04.293Z,31.1
2019-04-26T08:50:00.818Z,31.1
2019-04-26T08:55:00.577Z,31.3
2019-04-26T09:00:00.522Z,31.3
2019-04-26T09:05:00.633Z,30.8
2019-04-26T09:10:11.777Z,30.7
2019-04-26T09:15:00.849Z,30.7
2019-04-26T09:20:09.729Z,30.5
2019-04-26T09:25:01.428Z,30.2
2019-04-26T09:30:06.629Z,30.5
2019-04-26T09:35:00.604Z,30.2
2019-04-26T09:40:19.643Z,30.4
2019-04-26T09:45:00.612Z,30.4
2019-04-26T09:50:00.581Z,30.4
2019-04-26T09:55:00.987Z,30.2
2019-04-26T10:00:00.985Z,30.3
2019-04-26T10:05:00.787Z,30.1
2019-04-26T10:10:01.307Z,29.9
2019-04-26T10:15:01.183Z,29.4
2019-04-26T10:20:00.915Z,29.4
2019-04-26T10:30:09.742Z,29.2
2019-04-26T10:35:05.604Z,29.2
2019-04-26T10:40:01.599Z,29.4
2019-04-26T10:45:00.696Z,29.1
2019-04-26T10:50:00.690Z,28.9
2019-04-26T10:55:02.186Z,28.4
2019-04-26T11:00:00.646Z,27.8
2019-04-26T11:05:00.633Z,27.2
2019-04-26T11:10:03.311Z,26.4
2019-04-26T11:15:00.775Z,25.6
2019-04-26T11:20:00.559Z,24.9
2019-04-26T11:25:01.341Z,24.3
2019-04-26T11:30:21.253Z,23.6
2019-04-26T11:35:01.034Z,22.9
2019-04-26T11:40:00.584Z,22.3
2019-04-26T11:45:14.847Z,20.6
2019-04-26T11:50:00.946Z,19.1
2019-04-26T11:55:00.690Z,18.3
2019-04-26T12:00:06.971Z,17.4
2019-04-26T12:05:00.670Z,16.4
2019-04-26T12:10:00.615Z,16.2
2019-04-26T12:15:10.138Z,16.3
2019-04-26T12:20:02.543Z,15.3
2019-04-26T12:25:08.233Z,15.0
2019-04-26T12:30:00.591Z,13.8
2019-04-26T12:35:05.909Z,13.5
2019-04-26T12:40:00.878Z,12.8
2019-04-26T12:45:00.731Z,12.8
2019-04-26T12:50:00.842Z,12.1
2019-04-26T12:55:00.691Z,12.1
2019-04-26T13:00:03.927Z,11.9
2019-04-26T13:05:00.655Z,11.7
2019-04-26T13:10:06.511Z,11.4
2019-04-26T13:15:00.759Z,11.4
2019-04-26T13:30:10.337Z,13.0
2019-04-26T13:35:01.707Z,12.5
2019-04-26T13:40:00.903Z,11.1
2019-04-26T13:45:00.937Z,10.1
2019-04-26T13:50:00.870Z,9.4
2019-04-26T13:55:01.038Z,8.1
2019-04-26T14:00:11.577Z,7.1
2019-04-26T14:05:00.915Z,6.7
2019-04-26T14:10:00.888Z,6.6
2019-04-26T14:15:10.168Z,6.4
2019-04-26T14:20:00.886Z,6.0
2019-04-26T14:25:00.977Z,5.0
2019-04-26T14:30:08.191Z,4.2
2019-04-26T14:35:01.838Z,3.2
2019-04-26T14:45:07.345Z,1.8
2019-04-26T14:50:14.834Z,1.8
2019-04-26T14:55:00.932Z,2.0
2019-04-26T15:00:01.010Z,2.0
2019-04-26T15:05:09.425Z,2.0
2019-04-26T15:15:04.439Z,2.5
2019-04-26T15:20:00.917Z,2.7
2019-04-26T15:25:00.996Z,3.1
2019-04-26T15:30:04.647Z,3.7
2019-04-26T15:35:00.988Z,4.3
2019-04-26T15:40:02.827Z,4.4
2019-04-26T15:45:03.688Z,4.6
2019-04-26T15:50:11.151Z,4.9
2019-04-26T15:55:06.347Z,4.9
2019-04-26T16:00:04.593Z,5.5
2019-04-26T16:05:02.988Z,6.7
2019-04-26T16:10:00.943Z,7.6
2019-04-26T16:15:11.287Z,8.6
2019-04-26T16:20:02.231Z,9.2
2019-04-26T16:25:05.698Z,9.2
2019-04-26T16:30:03.282Z,9.0
2019-04-26T16:35:03.121Z,9.0
2019-04-26T16:40:01.122Z,8.8
2019-04-26T16:45:08.271Z,9.2
2019-04-26T16:50:04.006Z,9.4
2019-04-26T16:55:04.588Z,9.6
2019-04-26T17:00:04.174Z,9.6
2019-04-26T17:20:06.555Z,11.5
2019-04-26T17:30:00.965Z,13.8
2019-04-26T17:35:07.845Z,14.1
2019-04-26T17:40:01.222Z,15.0
2019-04-26T17:45:07.326Z,15.5
2019-04-26T17:55:01.190Z,15.0
2019-04-26T18:00:15.703Z,15.0
2019-04-26T18:05:04.006Z,14.4
2019-04-26T18:10:06.805Z,13.8
2019-04-26T18:15:16.384Z,14.0
2019-04-26T18:20:08.170Z,13.4
2019-04-26T18:25:14.322Z,13.3
2019-04-26T18:30:14.220Z,13.2
2019-04-26T18:35:01.295Z,13.8
2019-04-26T18:50:01.002Z,15.2
2019-04-26T19:00:01.295Z,16.8
2019-04-26T19:10:05.777Z,17.2
2019-04-26T19:15:07.949Z,17.8
2019-04-26T19:20:02.487Z,17.8
2019-04-26T19:25:02.436Z,18.0
2019-04-26T19:30:12.560Z,17.9
2019-04-26T19:35:14.436Z,18.8
2019-04-26T19:40:12.249Z,18.5
2019-04-26T19:45:19.634Z,17.6
2019-04-26T19:50:13.387Z,16.8
2019-04-26T19:55:02.314Z,15.6
2019-04-26T20:05:08.004Z,12.7
2019-04-26T20:10:06.369Z,12.5
2019-04-26T20:20:02.449Z,11.6
2019-04-26T20:25:02.837Z,11.5
2019-04-26T20:45:10.044Z,11.0
2019-04-26T20:50:03.370Z,11.0
2019-04-26T20:55:01.197Z,12.0
2019-04-26T21:05:11.010Z,12.6
2019-04-26T21:10:01.066Z,12.8
2019-04-26T21:20:02.764Z,14.6
2019-04-26T21:25:12.103Z,15.5
2019-04-26T21:40:01.079Z,19.1
2019-04-26T21:50:01.213Z,19.6
2019-04-26T21:55:01.160Z,19.2
2019-04-26T22:10:01.161Z,19.1
2019-04-26T22:20:16.464Z,20.5
2019-04-26T22:25:01.198Z,21.7
2019-04-26T22:35:06.144Z,23.0
2019-04-26T22:40:01.140Z,23.6
2019-04-26T22:45:10.527Z,23.1
2019-04-26T22:50:01.604Z,22.9
2019-04-26T22:55:01.239Z,22.9
2019-04-26T23:05:06.107Z,21.5
2019-04-26T23:10:01.188Z,22.2
2019-04-26T23:15:02.850Z,23.0
2019-04-26T23:20:03.231Z,24.3
2019-04-26T23:25:01.273Z,26.2
2019-04-26T23:35:06.355Z,27.2
2019-04-26T23:40:01.126Z,27.7
2019-04-26T23:45:03.079Z,27.2
2019-04-26T23:50:01.134Z,27.4
2019-04-26T23:55:09.354Z,26.8
